createdAt,value
2019-05-23T00:00:58.834Z,15.60
2019-05-23T00:03:52.332Z,15.50
2019-05-23T00:06:42.254Z,15.50
2019-05-23T00:09:31.386Z,15.50
2019-05-23T00:12:22.704Z,15.40
2019-05-23T00:15:00.973Z,15.40
2019-05-23T00:17:33.192Z,15.40
2019-05-23T00:20:06.066Z,15.30
2019-05-23T00:22:36.360Z,15.30
2019-05-23T00:25:09.882Z,15.30
2019-05-23T00:27:43.174Z,15.30
2019-05-23T00:30:16.143Z,15.30
2019-05-23T00:32:48.374Z,15.30
2019-05-23T00:35:20.034Z,15.30
2019-05-23T00:37:51.336Z,15.20
2019-05-23T00:40:22.833Z,15.20
2019-05-23T00:42:53.989Z,15.20
2019-05-23T00:45:27.135Z,15.20
2019-05-23T00:47:57.488Z,15.10
2019-05-23T00:50:28.697Z,15.10
2019-05-23T00:52:59.809Z,15.00
2019-05-23T00:55:30.518Z,15.00
2019-05-23T00:58:01.487Z,15.10
2019-05-23T01:00:32.485Z,15.00
2019-05-23T01:03:02.937Z,15.00
2019-05-23T01:05:34.051Z,15.00
2019-05-23T01:08:06.005Z,15.00
2019-05-23T01:10:36.688Z,14.90
2019-05-23T01:13:08.767Z,14.90
2019-05-23T01:15:41.867Z,14.90
2019-05-23T01:18:13.337Z,14.80
2019-05-23T01:21:03.158Z,14.70
2019-05-23T01:23:40.836Z,14.70
2019-05-23T01:26:12.457Z,14.70
2019-05-23T01:28:44.381Z,14.60
2019-05-23T01:31:32.959Z,14.60
2019-05-23T01:34:05.521Z,14.60
2019-05-23T01:36:38.301Z,14.60
2019-05-23T01:39:10.382Z,14.70
2019-05-23T01:41:42.244Z,14.60
2019-05-23T01:44:13.541Z,14.60
2019-05-23T01:46:45.117Z,14.60
2019-05-23T01:49:15.841Z,14.70
2019-05-23T01:51:46.175Z,14.70
2019-05-23T01:54:16.717Z,14.70
2019-05-23T01:56:48.105Z,14.70
2019-05-23T01:59:19.398Z,14.70
2019-05-23T02:01:49.988Z,14.70
2019-05-23T02:04:20.673Z,14.60
2019-05-23T02:06:51.268Z,14.60
2019-05-23T02:09:22.351Z,14.60
2019-05-23T02:11:53.037Z,14.50
2019-05-23T02:14:23.447Z,14.50
2019-05-23T02:16:55.973Z,14.50
2019-05-23T02:19:26.885Z,14.50
2019-05-23T02:21:58.769Z,14.40
2019-05-23T02:24:29.950Z,14.40
2019-05-23T02:27:01.929Z,14.40
2019-05-23T02:29:32.657Z,14.40
2019-05-23T02:32:05.482Z,14.40
2019-05-23T02:34:37.869Z,14.30
2019-05-23T02:37:26.947Z,14.30
2019-05-23T02:39:58.808Z,14.30
2019-05-23T02:42:34.759Z,14.30
2019-05-23T02:45:09.537Z,14.20
2019-05-23T02:47:42.637Z,14.20
2019-05-23T02:50:17.457Z,14.20
2019-05-23T02:52:50.461Z,14.10
2019-05-23T02:55:23.721Z,14.10
2019-05-23T02:57:54.403Z,14.00
2019-05-23T03:01:01.329Z,14.00
2019-05-23T03:07:23.852Z,13.90
2019-05-23T03:13:53.526Z,13.80
2019-05-23T03:20:11.444Z,13.80
2019-05-23T03:37:27.323Z,13.70
2019-05-23T03:46:57.665Z,13.50
2019-05-23T03:53:10.992Z,13.50
2019-05-23T03:59:12.988Z,13.60
2019-05-23T04:01:48.194Z,13.70
2019-05-23T04:04:24.294Z,13.70
2019-05-23T04:06:57.377Z,13.80
2019-05-23T04:09:28.066Z,13.90
2019-05-23T04:15:40.983Z,14.00
2019-05-23T04:18:17.434Z,14.00
2019-05-23T04:20:47.505Z,14.00
2019-05-23T04:23:17.940Z,14.10
2019-05-23T04:26:29.570Z,14.10
2019-05-23T04:29:00.174Z,14.10
2019-05-23T04:31:30.404Z,14.10
2019-05-23T04:37:42.560Z,14.10
2019-05-23T04:40:17.381Z,14.20
2019-05-23T04:42:47.735Z,14.20
2019-05-23T04:45:19.027Z,14.20
2019-05-23T04:51:30.039Z,14.30
2019-05-23T04:57:47.222Z,14.30
2019-05-23T05:04:00.086Z,14.30
2019-05-23T05:06:31.634Z,14.30
2019-05-23T05:09:02.623Z,14.40
2019-05-23T05:11:33.578Z,14.30
2019-05-23T05:17:46.547Z,14.20
2019-05-23T05:24:03.644Z,14.30
2019-05-23T05:30:21.485Z,14.40
2019-05-23T05:36:34.102Z,14.50
2019-05-23T05:42:54.672Z,14.80
2019-05-23T05:45:24.892Z,14.90
2019-05-23T05:55:08.159Z,15.50
2019-05-23T05:57:38.597Z,15.60
2019-05-23T06:00:23.366Z,15.80
2019-05-23T06:03:03.600Z,15.90
2019-05-23T06:05:29.102Z,16.00
2019-05-23T06:07:59.999Z,16.10
2019-05-23T06:10:43.389Z,16.30
2019-05-23T06:13:15.394Z,16.30
2019-05-23T06:15:45.959Z,16.40
2019-05-23T06:18:16.852Z,16.50
2019-05-23T06:20:48.134Z,16.60
2019-05-23T06:23:24.118Z,16.70
2019-05-23T06:25:54.726Z,16.80
2019-05-23T06:28:30.823Z,16.80
2019-05-23T06:31:02.130Z,16.90
2019-05-23T06:33:32.815Z,17.00
2019-05-23T06:36:03.279Z,17.00
2019-05-23T06:38:41.156Z,17.10
2019-05-23T06:41:12.236Z,17.20
2019-05-23T06:43:42.733Z,17.20
2019-05-23T06:46:14.333Z,17.30
2019-05-23T06:48:45.894Z,17.40
2019-05-23T06:51:17.529Z,17.40
2019-05-23T06:53:48.549Z,17.50
2019-05-23T06:56:22.589Z,17.60
2019-05-23T06:58:52.818Z,17.60
2019-05-23T07:01:24.711Z,17.70
2019-05-23T07:03:57.810Z,17.80
2019-05-23T07:06:29.626Z,17.90
2019-05-23T07:09:00.323Z,18.00
2019-05-23T07:11:30.965Z,18.10
2019-05-23T07:14:01.578Z,18.20
2019-05-23T07:16:38.873Z,18.30
2019-05-23T07:19:09.151Z,18.40
2019-05-23T07:21:41.344Z,18.50
2019-05-23T07:24:12.902Z,18.60
2019-05-23T07:26:43.443Z,18.60
2019-05-23T07:29:13.828Z,18.70
2019-05-23T07:31:53.647Z,18.70
2019-05-23T07:34:24.158Z,18.70
2019-05-23T07:36:54.715Z,18.80
2019-05-23T07:39:29.951Z,18.80
2019-05-23T07:42:00.594Z,18.90
2019-05-23T07:44:47.361Z,19.00
2019-05-23T07:47:07.487Z,19.10
2019-05-23T07:49:49.056Z,19.20
2019-05-23T07:52:22.377Z,19.30
2019-05-23T07:54:54.542Z,19.30
2019-05-23T07:57:26.273Z,19.40
2019-05-23T07:59:56.835Z,19.40
2019-05-23T08:02:36.567Z,19.40
2019-05-23T08:05:08.376Z,19.50
2019-05-23T08:07:40.319Z,19.50
2019-05-23T08:10:11.343Z,19.60
2019-05-23T08:12:41.896Z,19.70
2019-05-23T08:15:14.514Z,19.80
2019-05-23T08:17:50.726Z,20.00
2019-05-23T08:20:21.235Z,20.10
2019-05-23T08:22:58.135Z,20.20
2019-05-23T08:25:28.315Z,20.30
2019-05-23T08:28:02.713Z,20.40
2019-05-23T08:30:33.201Z,20.50
2019-05-23T08:33:15.220Z,20.60
2019-05-23T08:35:46.945Z,20.60
2019-05-23T08:38:18.609Z,20.30
2019-05-23T08:40:49.754Z,20.20
2019-05-23T08:43:26.090Z,20.10
2019-05-23T08:45:56.789Z,20.10
2019-05-23T08:48:30.835Z,20.00
2019-05-23T08:51:01.087Z,19.80
2019-05-23T08:53:31.386Z,19.80
2019-05-23T08:56:01.895Z,19.70
2019-05-23T08:58:32.279Z,19.60
2019-05-23T09:01:02.547Z,19.60
2019-05-23T09:03:34.168Z,19.40
2019-05-23T09:06:04.711Z,19.40
2019-05-23T09:08:39.130Z,19.40
2019-05-23T09:11:09.429Z,19.50
2019-05-23T09:13:40.871Z,19.50
2019-05-23T09:16:11.675Z,19.50
2019-05-23T09:18:42.308Z,19.60
2019-05-23T09:21:12.967Z,19.60
2019-05-23T09:23:45.159Z,19.70
2019-05-23T09:26:17.002Z,19.60
2019-05-23T09:28:48.265Z,19.60
2019-05-23T09:31:19.982Z,19.60
2019-05-23T09:33:52.979Z,19.60
2019-05-23T09:36:23.242Z,19.50
2019-05-23T09:38:58.031Z,19.50
2019-05-23T09:41:28.957Z,19.60
2019-05-23T09:44:00.248Z,19.60
2019-05-23T09:46:30.661Z,19.50
2019-05-23T09:49:11.029Z,19.60
2019-05-23T09:51:40.614Z,19.80
2019-05-23T09:54:15.455Z,20.00
2019-05-23T09:56:46.041Z,20.20
2019-05-23T09:59:16.294Z,20.50
2019-05-23T10:01:46.945Z,20.80
2019-05-23T10:04:18.377Z,20.90
2019-05-23T10:06:48.746Z,21.00
2019-05-23T10:09:22.060Z,21.00
2019-05-23T10:11:52.551Z,21.10
2019-05-23T10:14:30.687Z,21.10
2019-05-23T10:17:01.378Z,21.30
2019-05-23T10:19:32.132Z,21.30
2019-05-23T10:22:03.063Z,21.40
2019-05-23T10:24:43.860Z,21.30
2019-05-23T10:27:14.638Z,21.20
2019-05-23T10:29:50.640Z,21.30
2019-05-23T10:32:21.297Z,21.30
2019-05-23T10:34:51.706Z,21.50
2019-05-23T10:37:23.559Z,21.70
2019-05-23T10:39:56.377Z,21.70
2019-05-23T10:42:28.609Z,21.80
2019-05-23T10:45:00.082Z,21.90
2019-05-23T10:47:30.859Z,21.80
2019-05-23T10:50:08.751Z,21.70
2019-05-23T10:52:40.860Z,21.60
2019-05-23T10:55:12.568Z,21.40
2019-05-23T10:57:43.404Z,21.30
2019-05-23T11:00:21.878Z,21.30
2019-05-23T11:02:52.569Z,21.30
2019-05-23T11:05:31.181Z,21.40
2019-05-23T11:08:02.968Z,21.40
2019-05-23T11:10:42.041Z,21.50
2019-05-23T11:13:12.306Z,21.40
2019-05-23T11:19:13.438Z,21.40
2019-05-23T11:22:23.533Z,21.20
2019-05-23T11:24:54.194Z,21.20
2019-05-23T11:27:24.713Z,21.30
2019-05-23T11:30:29.702Z,21.40
2019-05-23T11:33:00.391Z,21.60
2019-05-23T11:35:31.014Z,21.90
2019-05-23T11:38:48.806Z,22.20
2019-05-23T11:41:19.407Z,22.40
2019-05-23T11:44:48.341Z,22.60
2019-05-23T11:48:00.045Z,22.70
2019-05-23T11:50:32.772Z,23.00
2019-05-23T11:53:03.066Z,23.00
2019-05-23T11:56:14.853Z,22.80
2019-05-23T11:58:45.071Z,22.70
2019-05-23T12:01:20.822Z,22.40
2019-05-23T12:05:06.195Z,22.50
2019-05-23T12:07:36.360Z,22.50
2019-05-23T12:10:08.061Z,22.50
2019-05-23T12:13:18.958Z,22.60
2019-05-23T12:15:49.732Z,22.60
2019-05-23T12:18:28.883Z,22.70
2019-05-23T12:21:00.389Z,22.90
2019-05-23T12:23:30.588Z,23.10
2019-05-23T12:29:52.387Z,23.30
2019-05-23T12:32:48.232Z,23.50
2019-05-23T12:35:18.559Z,23.60
2019-05-23T12:37:48.822Z,23.60
2019-05-23T12:40:31.687Z,23.80
2019-05-23T12:43:02.205Z,23.90
2019-05-23T12:45:32.856Z,24.00
2019-05-23T12:48:13.697Z,24.00
2019-05-23T12:50:45.598Z,24.20
2019-05-23T12:53:16.049Z,24.60
2019-05-23T12:55:50.283Z,24.50
2019-05-23T12:58:37.565Z,24.60
2019-05-23T13:01:09.700Z,24.60
2019-05-23T13:03:50.508Z,24.60
2019-05-23T13:06:21.324Z,24.60
2019-05-23T13:08:52.110Z,24.60
2019-05-23T13:15:05.214Z,24.80
2019-05-23T13:21:23.105Z,25.40
2019-05-23T13:27:38.942Z,25.70
2019-05-23T13:31:08.026Z,25.80
2019-05-23T13:33:38.396Z,26.00
2019-05-23T13:36:08.693Z,26.10
2019-05-23T13:42:20.299Z,26.10
2019-05-23T13:48:40.557Z,25.80
2019-05-23T13:54:57.711Z,25.80
2019-05-23T13:57:59.367Z,26.10
2019-05-23T14:00:30.471Z,26.30
2019-05-23T14:03:00.983Z,26.50
2019-05-23T14:09:18.046Z,26.70
2019-05-23T14:11:48.306Z,26.50
2019-05-23T14:14:18.734Z,26.50
2019-05-23T14:16:59.678Z,26.40
2019-05-23T14:19:30.613Z,26.40
2019-05-23T14:25:52.397Z,26.40
2019-05-23T14:35:09.344Z,26.40
2019-05-23T14:37:43.962Z,26.50
2019-05-23T14:53:50.707Z,26.40
2019-05-23T15:07:28.766Z,27.00
2019-05-23T15:10:00.435Z,27.00
2019-05-23T15:12:31.570Z,26.80
2019-05-23T15:18:50.247Z,26.80
2019-05-23T15:21:20.873Z,26.80
2019-05-23T15:27:37.493Z,26.90
2019-05-23T15:34:03.357Z,26.60
2019-05-23T15:40:19.948Z,26.20
2019-05-23T15:46:32.039Z,25.20
2019-05-23T15:49:24.152Z,24.90
2019-05-23T15:51:59.354Z,24.60
2019-05-23T16:04:41.717Z,24.10
2019-05-23T16:11:07.907Z,24.20
2019-05-23T16:17:07.797Z,24.00
2019-05-23T16:19:38.086Z,23.90
2019-05-23T16:22:14.150Z,23.80
2019-05-23T16:25:04.971Z,23.60
2019-05-23T16:27:36.456Z,23.70
2019-05-23T16:30:07.658Z,23.60
2019-05-23T16:32:37.924Z,23.60
2019-05-23T16:35:08.630Z,23.50
2019-05-23T16:37:38.990Z,23.50
2019-05-23T16:40:27.400Z,23.40
2019-05-23T16:42:57.658Z,23.30
2019-05-23T16:45:36.636Z,23.20
2019-05-23T16:48:07.077Z,23.20
2019-05-23T16:50:51.300Z,23.10
2019-05-23T16:53:22.790Z,23.10
2019-05-23T16:55:55.775Z,23.10
2019-05-23T16:58:53.972Z,22.90
2019-05-23T17:01:35.952Z,22.80
2019-05-23T17:04:25.815Z,22.60
2019-05-23T17:10:08.875Z,22.30
2019-05-23T17:12:41.915Z,22.10
2019-05-23T17:15:16.613Z,22.10
2019-05-23T17:18:02.634Z,21.90
2019-05-23T17:23:10.281Z,21.70
2019-05-23T17:25:42.191Z,21.50
2019-05-23T17:28:14.318Z,21.50
2019-05-23T17:33:25.113Z,21.30
2019-05-23T17:35:56.914Z,21.20
2019-05-23T17:38:27.368Z,21.10
2019-05-23T17:41:06.190Z,21.00
2019-05-23T17:46:23.797Z,21.40
2019-05-23T17:48:54.255Z,20.90
2019-05-23T17:51:27.067Z,20.80
2019-05-23T17:53:58.842Z,20.70
2019-05-23T17:56:31.160Z,20.60
2019-05-23T17:59:01.549Z,20.60
2019-05-23T18:01:43.029Z,20.50
2019-05-23T18:04:13.819Z,20.50
2019-05-23T18:06:44.053Z,20.50
2019-05-23T18:09:18.737Z,20.40
2019-05-23T18:11:49.272Z,20.40
2019-05-23T18:14:24.269Z,20.30
2019-05-23T18:16:54.709Z,20.30
2019-05-23T18:19:27.276Z,20.30
2019-05-23T18:21:57.606Z,20.20
2019-05-23T18:24:30.960Z,20.20
2019-05-23T18:27:01.307Z,20.10
2019-05-23T18:29:33.514Z,20.10
2019-05-23T18:32:05.493Z,20.00
2019-05-23T18:34:36.680Z,20.00
2019-05-23T18:37:07.803Z,19.90
2019-05-23T18:39:46.781Z,19.90
2019-05-23T18:42:17.289Z,19.80
2019-05-23T18:44:49.625Z,19.80
2019-05-23T18:47:27.965Z,19.80
2019-05-23T18:49:58.348Z,19.80
2019-05-23T18:52:32.686Z,19.70
2019-05-23T18:55:03.671Z,19.70
2019-05-23T18:57:34.386Z,19.70
2019-05-23T19:00:06.799Z,19.70
2019-05-23T19:02:47.202Z,19.70
2019-05-23T19:05:18.607Z,19.60
2019-05-23T19:07:52.352Z,19.60
2019-05-23T19:10:33.845Z,19.60
2019-05-23T19:13:04.129Z,19.60
2019-05-23T19:15:34.717Z,19.50
2019-05-23T19:18:05.502Z,19.50
2019-05-23T19:20:36.555Z,19.50
2019-05-23T19:23:11.618Z,19.50
2019-05-23T19:25:43.358Z,19.50
2019-05-23T19:28:14.322Z,19.50
2019-05-23T19:30:46.180Z,19.40
2019-05-23T19:33:16.966Z,19.40
2019-05-23T19:35:51.984Z,19.40
2019-05-23T19:38:22.368Z,19.40
2019-05-23T19:40:55.846Z,19.40
2019-05-23T19:43:26.650Z,19.30
2019-05-23T19:45:58.625Z,19.30
2019-05-23T19:48:33.281Z,19.30
2019-05-23T19:51:03.980Z,19.30
2019-05-23T19:53:36.055Z,19.30
2019-05-23T19:56:07.522Z,19.30
2019-05-23T19:58:38.965Z,19.20
2019-05-23T20:01:10.603Z,19.10
2019-05-23T20:03:41.250Z,19.00
2019-05-23T20:06:11.791Z,19.00
2019-05-23T20:08:50.504Z,19.00
2019-05-23T20:11:21.873Z,18.90
2019-05-23T20:13:52.600Z,18.90
2019-05-23T20:16:28.282Z,18.90
2019-05-23T20:18:59.718Z,18.80
2019-05-23T20:24:29.191Z,18.80
2019-05-23T20:26:59.446Z,18.80
2019-05-23T20:29:37.905Z,18.80
2019-05-23T20:32:09.415Z,18.70
2019-05-23T20:34:39.902Z,18.70
2019-05-23T20:37:10.450Z,18.60
2019-05-23T20:39:42.744Z,18.60
2019-05-23T20:42:13.049Z,18.60
2019-05-23T20:44:47.235Z,18.60
2019-05-23T20:47:17.903Z,18.50
2019-05-23T20:49:55.256Z,18.60
2019-05-23T20:52:25.509Z,18.50
2019-05-23T20:55:01.908Z,18.50
2019-05-23T21:00:09.007Z,18.30
2019-05-23T21:02:39.781Z,18.20
2019-05-23T21:05:15.623Z,18.10
2019-05-23T21:07:45.917Z,18.10
2019-05-23T21:10:35.496Z,18.00
2019-05-23T21:13:05.795Z,18.00
2019-05-23T21:15:40.909Z,17.90
2019-05-23T21:18:11.682Z,17.90
2019-05-23T21:20:44.346Z,17.80
2019-05-23T21:23:18.971Z,17.80
2019-05-23T21:25:51.233Z,17.70
2019-05-23T21:28:27.957Z,17.70
2019-05-23T21:30:58.177Z,17.60
2019-05-23T21:33:31.741Z,17.60
2019-05-23T21:36:02.012Z,17.60
2019-05-23T21:38:33.311Z,17.50
2019-05-23T21:41:03.823Z,17.50
2019-05-23T21:43:35.456Z,17.50
2019-05-23T21:46:05.754Z,17.50
2019-05-23T21:48:49.247Z,17.50
2019-05-23T21:51:19.809Z,17.40
2019-05-23T21:53:50.139Z,17.50
2019-05-23T21:56:20.327Z,17.40
2019-05-23T21:59:01.947Z,17.40
2019-05-23T22:01:42.961Z,17.40
2019-05-23T22:04:28.331Z,17.30
2019-05-23T22:07:00.842Z,17.40
2019-05-23T22:09:31.438Z,17.40
2019-05-23T22:12:04.637Z,17.40
2019-05-23T22:14:35.663Z,17.40
2019-05-23T22:17:06.109Z,17.30
2019-05-23T22:19:38.832Z,17.30
2019-05-23T22:22:10.557Z,17.30
2019-05-23T22:24:40.888Z,17.30
2019-05-23T22:27:11.207Z,17.20
2019-05-23T22:29:41.492Z,17.30
2019-05-23T22:32:13.308Z,17.30
2019-05-23T22:34:57.465Z,17.20
2019-05-23T22:37:27.679Z,17.20
2019-05-23T22:40:25.990Z,17.20
2019-05-23T22:42:57.822Z,17.10
2019-05-23T22:45:28.954Z,17.10
2019-05-23T22:47:59.240Z,17.10
2019-05-23T22:50:29.537Z,17.00
2019-05-23T22:52:59.820Z,17.00
2019-05-23T22:55:31.513Z,17.00
2019-05-23T22:58:01.792Z,16.90
2019-05-23T23:00:33.617Z,17.00
2019-05-23T23:03:05.053Z,16.90
2019-05-23T23:05:35.482Z,16.90
2019-05-23T23:08:05.728Z,16.80
2019-05-23T23:10:43.657Z,16.80
2019-05-23T23:13:15.566Z,16.80
2019-05-23T23:15:45.951Z,16.80
2019-05-23T23:18:16.267Z,16.80
2019-05-23T23:20:46.497Z,16.80
2019-05-23T23:23:17.078Z,16.70
2019-05-23T23:26:00.472Z,16.70
2019-05-23T23:28:30.880Z,16.70
2019-05-23T23:31:01.198Z,16.80
2019-05-23T23:33:32.494Z,16.80
2019-05-23T23:36:02.829Z,16.80
2019-05-23T23:38:33.553Z,16.80
2019-05-23T23:41:36.469Z,16.80
2019-05-23T23:44:14.102Z,16.80
2019-05-23T23:47:10.164Z,16.70
2019-05-23T23:49:59.522Z,16.70
2019-05-23T23:52:47.700Z,16.70
2019-05-23T23:55:36.741Z,16.70
2019-05-23T23:58:06.571Z,16.70
